sensor_id;sensor_type;location;lat;lon;timestamp;P1;durP1;ratioP1;P2;durP2;ratioP2
10248;SDS011;5169;50.560;9.714;2022-12-15T00:01:24;19.07;;;11.87;;
10248;SDS011;5169;50.560;9.714;2022-12-15T00:04:08;19.40;;;12.20;;
10248;SDS011;5169;50.560;9.714;2022-12-15T00:06:55;20.33;;;12.37;;
10248;SDS011;5169;50.560;9.714;2022-12-15T00:09:39;20.17;;;11.80;;
10248;SDS011;5169;50.560;9.714;2022-12-15T00:12:23;17.17;;;10.80;;
10248;SDS011;5169;50.560;9.714;2022-12-15T00:15:10;18.43;;;11.10;;
10248;SDS011;5169;50.560;9.714;2022-12-15T00:17:54;21.77;;;12.80;;
10248;SDS011;5169;50.560;9.714;2022-12-15T00:20:38;23.97;;;13.97;;
10248;SDS011;5169;50.560;9.714;2022-12-15T00:23:22;21.87;;;13.77;;
10248;SDS011;5169;50.560;9.714;2022-12-15T00:26:06;23.17;;;13.50;;
10248;SDS011;5169;50.560;9.714;2022-12-15T00:28:52;18.73;;;12.77;;
10248;SDS011;5169;50.560;9.714;2022-12-15T00:31:38;23.63;;;13.47;;
10248;SDS011;5169;50.560;9.714;2022-12-15T00:34:24;17.70;;;11.60;;
10248;SDS011;5169;50.560;9.714;2022-12-15T00:37:08;17.13;;;11.07;;
10248;SDS011;5169;50.560;9.714;2022-12-15T00:39:52;19.03;;;11.47;;
10248;SDS011;5169;50.560;9.714;2022-12-15T00:42:25;17.13;;;10.27;;
10248;SDS011;5169;50.560;9.714;2022-12-15T00:44:52;16.40;;;10.37;;
10248;SDS011;5169;50.560;9.714;2022-12-15T00:47:21;16.20;;;10.40;;
10248;SDS011;5169;50.560;9.714;2022-12-15T00:49:47;17.43;;;10.63;;
10248;SDS011;5169;50.560;9.714;2022-12-15T00:52:31;19.03;;;11.63;;
10248;SDS011;5169;50.560;9.714;2022-12-15T00:55:17;19.10;;;11.90;;
10248;SDS011;5169;50.560;9.714;2022-12-15T00:58:04;24.13;;;13.93;;
10248;SDS011;5169;50.560;9.714;2022-12-15T01:00:48;20.87;;;13.17;;
10248;SDS011;5169;50.560;9.714;2022-12-15T01:03:33;24.67;;;13.27;;
10248;SDS011;5169;50.560;9.714;2022-12-15T01:06:27;23.13;;;13.60;;
10248;SDS011;5169;50.560;9.714;2022-12-15T01:09:11;23.50;;;14.77;;
10248;SDS011;5169;50.560;9.714;2022-12-15T01:11:59;24.80;;;14.53;;
10248;SDS011;5169;50.560;9.714;2022-12-15T01:14:46;21.37;;;13.47;;
10248;SDS011;5169;50.560;9.714;2022-12-15T01:17:33;21.50;;;13.67;;
10248;SDS011;5169;50.560;9.714;2022-12-15T01:20:18;28.47;;;16.17;;
10248;SDS011;5169;50.560;9.714;2022-12-15T01:22:53;23.27;;;13.40;;
10248;SDS011;5169;50.560;9.714;2022-12-15T01:25:23;21.87;;;13.67;;
10248;SDS011;5169;50.560;9.714;2022-12-15T01:27:50;21.83;;;12.97;;
10248;SDS011;5169;50.560;9.714;2022-12-15T01:30:19;20.33;;;12.10;;
10248;SDS011;5169;50.560;9.714;2022-12-15T01:32:49;25.13;;;13.87;;
10248;SDS011;5169;50.560;9.714;2022-12-15T01:35:18;25.47;;;14.40;;
10248;SDS011;5169;50.560;9.714;2022-12-15T01:37:51;23.67;;;13.87;;
10248;SDS011;5169;50.560;9.714;2022-12-15T01:40:26;25.60;;;13.97;;
10248;SDS011;5169;50.560;9.714;2022-12-15T01:43:31;24.53;;;14.50;;
10248;SDS011;5169;50.560;9.714;2022-12-15T01:54:04;23.90;;;14.37;;
10248;SDS011;5169;50.560;9.714;2022-12-15T01:56:42;22.27;;;13.03;;
10248;SDS011;5169;50.560;9.714;2022-12-15T01:59:17;21.37;;;11.60;;
10248;SDS011;5169;50.560;9.714;2022-12-15T02:01:58;14.80;;;9.57;;
10248;SDS011;5169;50.560;9.714;2022-12-15T02:04:26;17.93;;;9.77;;
10248;SDS011;5169;50.560;9.714;2022-12-15T02:06:53;14.67;;;8.97;;
10248;SDS011;5169;50.560;9.714;2022-12-15T02:09:19;14.33;;;9.13;;
10248;SDS011;5169;50.560;9.714;2022-12-15T02:12:00;15.83;;;8.80;;
10248;SDS011;5169;50.560;9.714;2022-12-15T02:14:42;14.50;;;8.73;;
10248;SDS011;5169;50.560;9.714;2022-12-15T02:17:18;17.20;;;9.07;;
10248;SDS011;5169;50.560;9.714;2022-12-15T02:33:01;14.17;;;8.23;;
10248;SDS011;5169;50.560;9.714;2022-12-15T02:35:56;14.37;;;8.07;;
10248;SDS011;5169;50.560;9.714;2022-12-15T02:38:38;14.77;;;8.47;;
10248;SDS011;5169;50.560;9.714;2022-12-15T02:41:27;13.20;;;8.60;;
10248;SDS011;5169;50.560;9.714;2022-12-15T02:44:07;13.87;;;8.70;;
10248;SDS011;5169;50.560;9.714;2022-12-15T02:46:54;14.87;;;9.00;;
10248;SDS011;5169;50.560;9.714;2022-12-15T02:49:55;14.90;;;8.90;;
10248;SDS011;5169;50.560;9.714;2022-12-15T02:58:00;11.93;;;7.63;;
10248;SDS011;5169;50.560;9.714;2022-12-15T03:00:41;14.57;;;7.53;;
10248;SDS011;5169;50.560;9.714;2022-12-15T03:03:17;14.30;;;7.97;;
10248;SDS011;5169;50.560;9.714;2022-12-15T03:05:55;13.53;;;8.07;;
10248;SDS011;5169;50.560;9.714;2022-12-15T03:08:30;12.17;;;7.87;;
10248;SDS011;5169;50.560;9.714;2022-12-15T03:11:04;13.73;;;7.97;;
10248;SDS011;5169;50.560;9.714;2022-12-15T03:13:30;13.77;;;7.43;;
10248;SDS011;5169;50.560;9.714;2022-12-15T03:16:03;13.13;;;7.43;;
10248;SDS011;5169;50.560;9.714;2022-12-15T03:18:29;12.57;;;7.10;;
10248;SDS011;5169;50.560;9.714;2022-12-15T03:20:59;11.73;;;6.90;;
10248;SDS011;5169;50.560;9.714;2022-12-15T03:23:24;16.57;;;9.30;;
10248;SDS011;5169;50.560;9.714;2022-12-15T03:25:50;18.47;;;10.80;;
10248;SDS011;5169;50.560;9.714;2022-12-15T03:28:16;17.00;;;10.20;;
10248;SDS011;5169;50.560;9.714;2022-12-15T03:30:47;19.03;;;9.40;;
10248;SDS011;5169;50.560;9.714;2022-12-15T03:33:14;18.80;;;10.23;;
10248;SDS011;5169;50.560;9.714;2022-12-15T03:35:39;16.23;;;9.77;;
10248;SDS011;5169;50.560;9.714;2022-12-15T03:38:05;14.60;;;9.27;;
10248;SDS011;5169;50.560;9.714;2022-12-15T03:40:38;16.97;;;9.83;;
10248;SDS011;5169;50.560;9.714;2022-12-15T03:43:04;17.03;;;9.77;;
10248;SDS011;5169;50.560;9.714;2022-12-15T03:45:35;18.00;;;9.53;;
10248;SDS011;5169;50.560;9.714;2022-12-15T03:48:00;17.33;;;9.37;;
10248;SDS011;5169;50.560;9.714;2022-12-15T03:50:31;17.37;;;9.73;;
10248;SDS011;5169;50.560;9.714;2022-12-15T03:53:05;16.17;;;9.83;;
10248;SDS011;5169;50.560;9.714;2022-12-15T03:55:35;13.07;;;8.83;;
10248;SDS011;5169;50.560;9.714;2022-12-15T03:58:03;15.07;;;8.40;;
10248;SDS011;5169;50.560;9.714;2022-12-15T04:00:28;18.43;;;8.80;;
10248;SDS011;5169;50.560;9.714;2022-12-15T04:02:54;14.87;;;9.33;;
10248;SDS011;5169;50.560;9.714;2022-12-15T04:05:27;14.13;;;8.67;;
10248;SDS011;5169;50.560;9.714;2022-12-15T04:08:02;15.23;;;8.97;;
10248;SDS011;5169;50.560;9.714;2022-12-15T04:10:29;13.40;;;8.53;;
10248;SDS011;5169;50.560;9.714;2022-12-15T04:13:07;14.47;;;7.73;;
10248;SDS011;5169;50.560;9.714;2022-12-15T04:15:41;14.80;;;8.57;;
10248;SDS011;5169;50.560;9.714;2022-12-15T04:18:09;13.30;;;7.90;;
10248;SDS011;5169;50.560;9.714;2022-12-15T04:20:35;14.43;;;8.00;;
10248;SDS011;5169;50.560;9.714;2022-12-15T04:23:07;14.13;;;8.50;;
10248;SDS011;5169;50.560;9.714;2022-12-15T04:25:34;14.40;;;8.33;;
10248;SDS011;5169;50.560;9.714;2022-12-15T04:28:19;15.23;;;8.33;;
10248;SDS011;5169;50.560;9.714;2022-12-15T04:31:10;12.53;;;7.87;;
10248;SDS011;5169;50.560;9.714;2022-12-15T04:34:05;16.20;;;8.53;;
10248;SDS011;5169;50.560;9.714;2022-12-15T04:36:56;11.80;;;7.57;;
10248;SDS011;5169;50.560;9.714;2022-12-15T04:39:41;15.27;;;8.60;;
10248;SDS011;5169;50.560;9.714;2022-12-15T04:42:32;16.07;;;8.43;;
10248;SDS011;5169;50.560;9.714;2022-12-15T04:45:25;17.03;;;8.73;;
10248;SDS011;5169;50.560;9.714;2022-12-15T04:48:09;15.97;;;9.63;;
10248;SDS011;5169;50.560;9.714;2022-12-15T04:50:54;15.83;;;8.77;;
10248;SDS011;5169;50.560;9.714;2022-12-15T04:53:41;22.60;;;10.30;;
10248;SDS011;5169;50.560;9.714;2022-12-15T04:56:26;17.63;;;10.20;;
10248;SDS011;5169;50.560;9.714;2022-12-15T04:59:16;17.07;;;9.60;;
10248;SDS011;5169;50.560;9.714;2022-12-15T05:02:00;15.20;;;9.03;;
10248;SDS011;5169;50.560;9.714;2022-12-15T05:04:48;16.17;;;9.37;;
10248;SDS011;5169;50.560;9.714;2022-12-15T05:07:38;16.03;;;8.37;;
10248;SDS011;5169;50.560;9.714;2022-12-15T05:10:25;16.63;;;9.27;;
10248;SDS011;5169;50.560;9.714;2022-12-15T05:13:12;15.67;;;8.93;;
10248;SDS011;5169;50.560;9.714;2022-12-15T05:16:00;12.33;;;8.30;;
10248;SDS011;5169;50.560;9.714;2022-12-15T05:18:44;15.97;;;8.57;;
10248;SDS011;5169;50.560;9.714;2022-12-15T05:21:37;12.50;;;8.60;;
10248;SDS011;5169;50.560;9.714;2022-12-15T05:24:20;14.17;;;8.87;;
10248;SDS011;5169;50.560;9.714;2022-12-15T05:27:11;13.73;;;8.57;;
10248;SDS011;5169;50.560;9.714;2022-12-15T05:30:02;16.17;;;8.63;;
10248;SDS011;5169;50.560;9.714;2022-12-15T05:32:47;15.67;;;8.57;;
10248;SDS011;5169;50.560;9.714;2022-12-15T05:35:13;14.20;;;8.30;;
10248;SDS011;5169;50.560;9.714;2022-12-15T05:37:38;13.53;;;7.93;;
10248;SDS011;5169;50.560;9.714;2022-12-15T05:40:05;14.20;;;8.53;;
10248;SDS011;5169;50.560;9.714;2022-12-15T05:42:31;15.17;;;8.93;;
10248;SDS011;5169;50.560;9.714;2022-12-15T05:45:00;14.17;;;8.70;;
10248;SDS011;5169;50.560;9.714;2022-12-15T05:47:31;17.17;;;9.03;;
10248;SDS011;5169;50.560;9.714;2022-12-15T05:50:00;14.77;;;8.47;;
10248;SDS011;5169;50.560;9.714;2022-12-15T05:52:25;14.40;;;9.07;;
10248;SDS011;5169;50.560;9.714;2022-12-15T05:54:51;15.83;;;8.80;;
10248;SDS011;5169;50.560;9.714;2022-12-15T05:57:17;16.20;;;9.47;;
10248;SDS011;5169;50.560;9.714;2022-12-15T05:59:42;14.70;;;8.40;;
10248;SDS011;5169;50.560;9.714;2022-12-15T06:02:08;14.70;;;8.83;;
10248;SDS011;5169;50.560;9.714;2022-12-15T06:04:41;12.73;;;8.50;;
10248;SDS011;5169;50.560;9.714;2022-12-15T06:07:06;13.03;;;8.43;;
10248;SDS011;5169;50.560;9.714;2022-12-15T06:09:32;14.83;;;8.47;;
10248;SDS011;5169;50.560;9.714;2022-12-15T06:12:00;15.63;;;8.70;;
10248;SDS011;5169;50.560;9.714;2022-12-15T06:14:28;14.23;;;8.13;;
10248;SDS011;5169;50.560;9.714;2022-12-15T06:16:55;15.30;;;8.40;;
10248;SDS011;5169;50.560;9.714;2022-12-15T06:19:26;13.00;;;7.70;;
10248;SDS011;5169;50.560;9.714;2022-12-15T06:21:51;13.67;;;8.43;;
10248;SDS011;5169;50.560;9.714;2022-12-15T06:24:19;12.67;;;7.77;;
10248;SDS011;5169;50.560;9.714;2022-12-15T06:26:45;13.40;;;8.50;;
10248;SDS011;5169;50.560;9.714;2022-12-15T06:29:16;14.77;;;9.00;;
10248;SDS011;5169;50.560;9.714;2022-12-15T06:31:44;15.43;;;9.33;;
10248;SDS011;5169;50.560;9.714;2022-12-15T06:34:14;17.03;;;9.40;;
10248;SDS011;5169;50.560;9.714;2022-12-15T06:36:40;18.40;;;9.83;;
10248;SDS011;5169;50.560;9.714;2022-12-15T06:39:07;15.97;;;9.37;;
10248;SDS011;5169;50.560;9.714;2022-12-15T06:41:43;14.70;;;9.30;;
10248;SDS011;5169;50.560;9.714;2022-12-15T06:44:17;16.53;;;9.47;;
10248;SDS011;5169;50.560;9.714;2022-12-15T06:46:45;13.80;;;8.33;;
10248;SDS011;5169;50.560;9.714;2022-12-15T06:49:14;13.97;;;7.43;;
10248;SDS011;5169;50.560;9.714;2022-12-15T06:51:39;12.60;;;8.30;;
10248;SDS011;5169;50.560;9.714;2022-12-15T06:54:08;12.00;;;7.67;;
10248;SDS011;5169;50.560;9.714;2022-12-15T06:56:41;14.50;;;8.10;;
10248;SDS011;5169;50.560;9.714;2022-12-15T06:59:07;11.17;;;7.27;;
10248;SDS011;5169;50.560;9.714;2022-12-15T07:01:34;13.83;;;8.20;;
10248;SDS011;5169;50.560;9.714;2022-12-15T07:04:16;14.13;;;9.43;;
10248;SDS011;5169;50.560;9.714;2022-12-15T07:06:42;18.30;;;11.20;;
10248;SDS011;5169;50.560;9.714;2022-12-15T07:09:10;19.47;;;11.13;;
10248;SDS011;5169;50.560;9.714;2022-12-15T07:11:41;18.67;;;10.60;;
10248;SDS011;5169;50.560;9.714;2022-12-15T07:14:07;18.83;;;10.50;;
10248;SDS011;5169;50.560;9.714;2022-12-15T07:16:34;21.43;;;11.20;;
10248;SDS011;5169;50.560;9.714;2022-12-15T07:19:08;18.47;;;11.47;;
10248;SDS011;5169;50.560;9.714;2022-12-15T07:21:39;18.20;;;10.83;;
10248;SDS011;5169;50.560;9.714;2022-12-15T07:24:08;16.70;;;10.80;;
10248;SDS011;5169;50.560;9.714;2022-12-15T07:26:41;15.60;;;9.73;;
10248;SDS011;5169;50.560;9.714;2022-12-15T07:29:08;19.93;;;11.03;;
10248;SDS011;5169;50.560;9.714;2022-12-15T07:36:56;17.13;;;9.77;;
10248;SDS011;5169;50.560;9.714;2022-12-15T07:39:22;14.93;;;9.63;;
10248;SDS011;5169;50.560;9.714;2022-12-15T07:41:48;14.47;;;9.27;;
10248;SDS011;5169;50.560;9.714;2022-12-15T07:44:14;15.67;;;9.63;;
10248;SDS011;5169;50.560;9.714;2022-12-15T07:46:39;19.53;;;9.63;;
10248;SDS011;5169;50.560;9.714;2022-12-15T07:49:08;16.50;;;9.30;;
10248;SDS011;5169;50.560;9.714;2022-12-15T07:51:36;16.03;;;9.57;;
10248;SDS011;5169;50.560;9.714;2022-12-15T07:54:02;17.17;;;9.50;;
10248;SDS011;5169;50.560;9.714;2022-12-15T07:56:28;15.70;;;10.27;;
10248;SDS011;5169;50.560;9.714;2022-12-15T07:58:56;16.60;;;9.93;;
10248;SDS011;5169;50.560;9.714;2022-12-15T08:01:23;18.47;;;10.40;;
10248;SDS011;5169;50.560;9.714;2022-12-15T08:03:52;19.40;;;11.23;;
10248;SDS011;5169;50.560;9.714;2022-12-15T08:06:25;16.67;;;10.63;;
10248;SDS011;5169;50.560;9.714;2022-12-15T08:08:58;17.07;;;10.57;;
10248;SDS011;5169;50.560;9.714;2022-12-15T08:11:29;16.63;;;10.80;;
10248;SDS011;5169;50.560;9.714;2022-12-15T08:13:59;21.77;;;11.33;;
10248;SDS011;5169;50.560;9.714;2022-12-15T08:16:27;24.23;;;13.87;;
10248;SDS011;5169;50.560;9.714;2022-12-15T08:18:53;21.77;;;12.67;;
10248;SDS011;5169;50.560;9.714;2022-12-15T08:21:25;19.60;;;12.90;;
10248;SDS011;5169;50.560;9.714;2022-12-15T08:23:58;20.77;;;13.00;;
10248;SDS011;5169;50.560;9.714;2022-12-15T08:26:27;26.10;;;12.97;;
10248;SDS011;5169;50.560;9.714;2022-12-15T08:28:53;25.33;;;12.60;;
10248;SDS011;5169;50.560;9.714;2022-12-15T08:31:22;21.30;;;13.07;;
10248;SDS011;5169;50.560;9.714;2022-12-15T08:33:48;22.73;;;12.93;;
10248;SDS011;5169;50.560;9.714;2022-12-15T08:36:18;21.30;;;12.80;;
10248;SDS011;5169;50.560;9.714;2022-12-15T08:38:45;24.23;;;13.07;;
10248;SDS011;5169;50.560;9.714;2022-12-15T08:41:21;21.40;;;12.43;;
10248;SDS011;5169;50.560;9.714;2022-12-15T08:43:50;22.00;;;13.47;;
10248;SDS011;5169;50.560;9.714;2022-12-15T08:46:23;22.23;;;13.00;;
10248;SDS011;5169;50.560;9.714;2022-12-15T08:48:56;21.70;;;12.50;;
10248;SDS011;5169;50.560;9.714;2022-12-15T08:51:23;26.63;;;15.80;;
10248;SDS011;5169;50.560;9.714;2022-12-15T08:53:49;23.60;;;14.33;;
10248;SDS011;5169;50.560;9.714;2022-12-15T08:56:19;26.93;;;14.83;;
10248;SDS011;5169;50.560;9.714;2022-12-15T08:58:46;28.53;;;16.87;;
10248;SDS011;5169;50.560;9.714;2022-12-15T09:01:19;25.33;;;16.10;;
10248;SDS011;5169;50.560;9.714;2022-12-15T09:03:46;21.77;;;14.80;;
10248;SDS011;5169;50.560;9.714;2022-12-15T09:06:14;20.70;;;13.47;;
10248;SDS011;5169;50.560;9.714;2022-12-15T09:08:48;23.73;;;14.27;;
10248;SDS011;5169;50.560;9.714;2022-12-15T09:11:20;23.53;;;15.23;;
10248;SDS011;5169;50.560;9.714;2022-12-15T09:13:47;22.60;;;14.50;;
10248;SDS011;5169;50.560;9.714;2022-12-15T09:16:13;26.47;;;16.70;;
10248;SDS011;5169;50.560;9.714;2022-12-15T09:18:46;25.50;;;16.17;;
10248;SDS011;5169;50.560;9.714;2022-12-15T09:21:21;23.53;;;15.37;;
10248;SDS011;5169;50.560;9.714;2022-12-15T09:23:55;25.63;;;15.37;;
10248;SDS011;5169;50.560;9.714;2022-12-15T09:26:25;24.37;;;14.60;;
10248;SDS011;5169;50.560;9.714;2022-12-15T09:28:58;23.07;;;14.77;;
10248;SDS011;5169;50.560;9.714;2022-12-15T09:31:25;26.33;;;15.73;;
10248;SDS011;5169;50.560;9.714;2022-12-15T09:33:56;23.27;;;14.53;;
10248;SDS011;5169;50.560;9.714;2022-12-15T09:36:23;19.13;;;13.47;;
10248;SDS011;5169;50.560;9.714;2022-12-15T09:38:50;21.97;;;13.93;;
10248;SDS011;5169;50.560;9.714;2022-12-15T09:41:24;23.23;;;13.87;;
10248;SDS011;5169;50.560;9.714;2022-12-15T09:44:03;25.60;;;16.47;;
10248;SDS011;5169;50.560;9.714;2022-12-15T09:52:32;21.07;;;14.67;;
10248;SDS011;5169;50.560;9.714;2022-12-15T09:55:15;24.03;;;16.57;;
10248;SDS011;5169;50.560;9.714;2022-12-15T10:06:36;24.17;;;17.90;;
10248;SDS011;5169;50.560;9.714;2022-12-15T10:09:13;24.53;;;17.73;;
10248;SDS011;5169;50.560;9.714;2022-12-15T10:12:01;27.73;;;19.10;;
10248;SDS011;5169;50.560;9.714;2022-12-15T10:15:04;26.67;;;18.13;;
10248;SDS011;5169;50.560;9.714;2022-12-15T10:17:58;26.70;;;17.60;;
10248;SDS011;5169;50.560;9.714;2022-12-15T10:20:34;29.07;;;19.57;;
10248;SDS011;5169;50.560;9.714;2022-12-15T10:23:01;26.63;;;18.93;;
10248;SDS011;5169;50.560;9.714;2022-12-15T10:25:35;26.20;;;17.93;;
10248;SDS011;5169;50.560;9.714;2022-12-15T10:28:23;22.57;;;16.80;;
10248;SDS011;5169;50.560;9.714;2022-12-15T10:31:27;24.10;;;17.60;;
10248;SDS011;5169;50.560;9.714;2022-12-15T10:34:08;23.30;;;16.57;;
10248;SDS011;5169;50.560;9.714;2022-12-15T10:36:50;24.70;;;15.50;;
10248;SDS011;5169;50.560;9.714;2022-12-15T10:39:22;26.17;;;15.97;;
10248;SDS011;5169;50.560;9.714;2022-12-15T10:45:09;26.20;;;16.60;;
10248;SDS011;5169;50.560;9.714;2022-12-15T10:48:02;26.67;;;18.77;;
10248;SDS011;5169;50.560;9.714;2022-12-15T10:50:33;24.17;;;17.03;;
10248;SDS011;5169;50.560;9.714;2022-12-15T10:52:59;27.90;;;19.67;;
10248;SDS011;5169;50.560;9.714;2022-12-15T10:55:39;30.30;;;18.80;;
10248;SDS011;5169;50.560;9.714;2022-12-15T10:58:15;26.80;;;17.63;;
10248;SDS011;5169;50.560;9.714;2022-12-15T11:01:03;28.70;;;18.77;;
10248;SDS011;5169;50.560;9.714;2022-12-15T11:03:46;27.90;;;18.87;;
10248;SDS011;5169;50.560;9.714;2022-12-15T11:06:20;29.03;;;18.57;;
10248;SDS011;5169;50.560;9.714;2022-12-15T11:08:56;27.33;;;17.77;;
10248;SDS011;5169;50.560;9.714;2022-12-15T11:11:58;26.03;;;18.67;;
10248;SDS011;5169;50.560;9.714;2022-12-15T11:17:15;27.90;;;17.57;;
10248;SDS011;5169;50.560;9.714;2022-12-15T11:19:50;27.07;;;18.03;;
10248;SDS011;5169;50.560;9.714;2022-12-15T11:25:44;23.17;;;17.27;;
10248;SDS011;5169;50.560;9.714;2022-12-15T11:28:21;26.47;;;16.27;;
10248;SDS011;5169;50.560;9.714;2022-12-15T11:33:46;25.77;;;17.37;;
10248;SDS011;5169;50.560;9.714;2022-12-15T11:39:23;22.50;;;15.17;;
10248;SDS011;5169;50.560;9.714;2022-12-15T11:42:21;23.30;;;14.30;;
10248;SDS011;5169;50.560;9.714;2022-12-15T11:45:14;20.53;;;14.00;;
10248;SDS011;5169;50.560;9.714;2022-12-15T11:48:11;23.87;;;14.33;;
10248;SDS011;5169;50.560;9.714;2022-12-15T12:00:04;20.60;;;14.00;;
10248;SDS011;5169;50.560;9.714;2022-12-15T12:05:23;17.97;;;12.70;;
10248;SDS011;5169;50.560;9.714;2022-12-15T12:11:12;18.87;;;12.67;;
10248;SDS011;5169;50.560;9.714;2022-12-15T12:19:10;24.63;;;14.40;;
10248;SDS011;5169;50.560;9.714;2022-12-15T12:21:47;24.23;;;13.97;;
10248;SDS011;5169;50.560;9.714;2022-12-15T12:24:23;20.50;;;13.87;;
10248;SDS011;5169;50.560;9.714;2022-12-15T12:26:59;20.13;;;13.67;;
10248;SDS011;5169;50.560;9.714;2022-12-15T12:29:41;21.07;;;14.17;;
10248;SDS011;5169;50.560;9.714;2022-12-15T12:43:44;21.10;;;14.03;;
10248;SDS011;5169;50.560;9.714;2022-12-15T12:46:25;22.40;;;14.63;;
10248;SDS011;5169;50.560;9.714;2022-12-15T12:52:27;21.20;;;13.93;;
10248;SDS011;5169;50.560;9.714;2022-12-15T12:57:40;20.80;;;13.47;;
10248;SDS011;5169;50.560;9.714;2022-12-15T13:03:18;21.00;;;13.40;;
10248;SDS011;5169;50.560;9.714;2022-12-15T13:05:51;27.33;;;16.43;;
10248;SDS011;5169;50.560;9.714;2022-12-15T13:08:28;21.77;;;14.07;;
10248;SDS011;5169;50.560;9.714;2022-12-15T13:14:11;23.17;;;15.07;;
10248;SDS011;5169;50.560;9.714;2022-12-15T13:16:43;22.20;;;14.87;;
10248;SDS011;5169;50.560;9.714;2022-12-15T13:19:12;22.73;;;14.83;;
10248;SDS011;5169;50.560;9.714;2022-12-15T13:21:46;27.27;;;16.47;;
10248;SDS011;5169;50.560;9.714;2022-12-15T13:24:29;16.03;;;11.17;;
10248;SDS011;5169;50.560;9.714;2022-12-15T13:29:34;10.83;;;8.10;;
10248;SDS011;5169;50.560;9.714;2022-12-15T13:32:39;12.20;;;8.20;;
10248;SDS011;5169;50.560;9.714;2022-12-15T13:38:52;12.70;;;7.93;;
10248;SDS011;5169;50.560;9.714;2022-12-15T13:41:21;11.73;;;8.40;;
10248;SDS011;5169;50.560;9.714;2022-12-15T13:43:50;13.93;;;9.63;;
10248;SDS011;5169;50.560;9.714;2022-12-15T13:46:25;15.77;;;11.00;;
10248;SDS011;5169;50.560;9.714;2022-12-15T13:52:02;15.17;;;11.07;;
10248;SDS011;5169;50.560;9.714;2022-12-15T13:54:49;15.87;;;10.30;;
10248;SDS011;5169;50.560;9.714;2022-12-15T13:57:33;14.13;;;9.67;;
10248;SDS011;5169;50.560;9.714;2022-12-15T14:00:14;14.10;;;9.07;;
10248;SDS011;5169;50.560;9.714;2022-12-15T14:03:01;15.83;;;10.10;;
10248;SDS011;5169;50.560;9.714;2022-12-15T14:05:35;16.67;;;10.47;;
10248;SDS011;5169;50.560;9.714;2022-12-15T14:08:04;19.20;;;10.60;;
10248;SDS011;5169;50.560;9.714;2022-12-15T14:10:42;14.57;;;9.47;;
10248;SDS011;5169;50.560;9.714;2022-12-15T14:13:37;12.10;;;8.63;;
10248;SDS011;5169;50.560;9.714;2022-12-15T14:16:06;11.30;;;7.80;;
10248;SDS011;5169;50.560;9.714;2022-12-15T14:19:28;10.20;;;6.60;;
10248;SDS011;5169;50.560;9.714;2022-12-15T14:27:25;8.67;;;5.90;;
10248;SDS011;5169;50.560;9.714;2022-12-15T14:32:38;10.87;;;7.10;;
10248;SDS011;5169;50.560;9.714;2022-12-15T14:35:05;14.20;;;8.10;;
10248;SDS011;5169;50.560;9.714;2022-12-15T14:37:49;16.70;;;9.97;;
10248;SDS011;5169;50.560;9.714;2022-12-15T14:40:15;16.33;;;9.80;;
10248;SDS011;5169;50.560;9.714;2022-12-15T14:42:45;15.97;;;10.30;;
10248;SDS011;5169;50.560;9.714;2022-12-15T14:45:24;16.97;;;11.00;;
10248;SDS011;5169;50.560;9.714;2022-12-15T14:48:05;16.40;;;10.00;;
10248;SDS011;5169;50.560;9.714;2022-12-15T14:50:47;13.67;;;9.27;;
10248;SDS011;5169;50.560;9.714;2022-12-15T14:53:16;15.50;;;10.57;;
10248;SDS011;5169;50.560;9.714;2022-12-15T14:55:47;13.67;;;9.17;;
10248;SDS011;5169;50.560;9.714;2022-12-15T15:00:54;15.03;;;9.40;;
10248;SDS011;5169;50.560;9.714;2022-12-15T15:03:46;16.33;;;10.23;;
10248;SDS011;5169;50.560;9.714;2022-12-15T15:06:39;13.20;;;9.70;;
10248;SDS011;5169;50.560;9.714;2022-12-15T15:09:15;13.80;;;9.60;;
10248;SDS011;5169;50.560;9.714;2022-12-15T15:11:48;14.83;;;9.50;;
10248;SDS011;5169;50.560;9.714;2022-12-15T15:14:23;14.13;;;9.17;;
10248;SDS011;5169;50.560;9.714;2022-12-15T15:17:23;14.13;;;10.10;;
10248;SDS011;5169;50.560;9.714;2022-12-15T15:19:59;13.63;;;9.93;;
10248;SDS011;5169;50.560;9.714;2022-12-15T15:22:42;14.27;;;9.73;;
10248;SDS011;5169;50.560;9.714;2022-12-15T15:25:36;12.67;;;9.47;;
10248;SDS011;5169;50.560;9.714;2022-12-15T15:28:14;14.50;;;9.77;;
10248;SDS011;5169;50.560;9.714;2022-12-15T15:30:47;13.83;;;9.60;;
10248;SDS011;5169;50.560;9.714;2022-12-15T15:33:13;16.57;;;11.40;;
10248;SDS011;5169;50.560;9.714;2022-12-15T15:35:41;17.40;;;10.90;;
10248;SDS011;5169;50.560;9.714;2022-12-15T15:40:51;15.37;;;10.93;;
10248;SDS011;5169;50.560;9.714;2022-12-15T15:43:24;14.43;;;10.07;;
10248;SDS011;5169;50.560;9.714;2022-12-15T15:46:02;16.20;;;10.33;;
10248;SDS011;5169;50.560;9.714;2022-12-15T15:51:27;16.80;;;10.33;;
10248;SDS011;5169;50.560;9.714;2022-12-15T15:54:05;13.83;;;9.87;;
10248;SDS011;5169;50.560;9.714;2022-12-15T15:56:41;14.10;;;9.23;;
10248;SDS011;5169;50.560;9.714;2022-12-15T15:59:15;15.60;;;10.10;;
10248;SDS011;5169;50.560;9.714;2022-12-15T16:01:51;14.77;;;10.30;;
10248;SDS011;5169;50.560;9.714;2022-12-15T16:04:27;18.17;;;11.80;;
10248;SDS011;5169;50.560;9.714;2022-12-15T16:06:52;18.77;;;11.93;;
10248;SDS011;5169;50.560;9.714;2022-12-15T16:09:22;18.13;;;12.40;;
10248;SDS011;5169;50.560;9.714;2022-12-15T16:11:51;21.43;;;14.27;;
10248;SDS011;5169;50.560;9.714;2022-12-15T16:14:18;19.40;;;12.53;;
10248;SDS011;5169;50.560;9.714;2022-12-15T16:16:46;19.63;;;12.80;;
10248;SDS011;5169;50.560;9.714;2022-12-15T16:19:14;22.03;;;13.23;;
10248;SDS011;5169;50.560;9.714;2022-12-15T16:21:40;20.33;;;14.23;;
10248;SDS011;5169;50.560;9.714;2022-12-15T16:24:12;23.80;;;14.83;;
10248;SDS011;5169;50.560;9.714;2022-12-15T16:26:47;24.63;;;15.73;;
10248;SDS011;5169;50.560;9.714;2022-12-15T16:29:15;22.67;;;15.13;;
10248;SDS011;5169;50.560;9.714;2022-12-15T16:31:48;23.80;;;15.27;;
10248;SDS011;5169;50.560;9.714;2022-12-15T16:34:14;22.73;;;14.80;;
10248;SDS011;5169;50.560;9.714;2022-12-15T16:36:40;24.50;;;15.73;;
10248;SDS011;5169;50.560;9.714;2022-12-15T16:42:00;24.00;;;16.07;;
10248;SDS011;5169;50.560;9.714;2022-12-15T16:44:29;23.17;;;15.63;;
10248;SDS011;5169;50.560;9.714;2022-12-15T16:47:00;28.53;;;19.43;;
10248;SDS011;5169;50.560;9.714;2022-12-15T16:49:26;25.27;;;17.07;;
10248;SDS011;5169;50.560;9.714;2022-12-15T16:51:54;24.87;;;15.70;;
10248;SDS011;5169;50.560;9.714;2022-12-15T16:54:27;21.97;;;14.73;;
10248;SDS011;5169;50.560;9.714;2022-12-15T16:57:01;21.20;;;15.00;;
10248;SDS011;5169;50.560;9.714;2022-12-15T16:59:27;22.07;;;14.37;;
10248;SDS011;5169;50.560;9.714;2022-12-15T17:01:58;19.67;;;12.90;;
10248;SDS011;5169;50.560;9.714;2022-12-15T17:04:24;18.30;;;12.43;;
10248;SDS011;5169;50.560;9.714;2022-12-15T17:06:52;19.50;;;12.67;;
10248;SDS011;5169;50.560;9.714;2022-12-15T17:09:25;17.30;;;12.27;;
10248;SDS011;5169;50.560;9.714;2022-12-15T17:11:50;21.33;;;13.93;;
10248;SDS011;5169;50.560;9.714;2022-12-15T17:14:16;38.57;;;20.17;;
10248;SDS011;5169;50.560;9.714;2022-12-15T17:16:49;31.50;;;19.53;;
10248;SDS011;5169;50.560;9.714;2022-12-15T17:19:15;37.10;;;22.07;;
10248;SDS011;5169;50.560;9.714;2022-12-15T17:21:47;22.93;;;14.43;;
10248;SDS011;5169;50.560;9.714;2022-12-15T17:24:18;39.30;;;21.07;;
10248;SDS011;5169;50.560;9.714;2022-12-15T17:26:48;19.83;;;12.50;;
10248;SDS011;5169;50.560;9.714;2022-12-15T17:29:15;23.70;;;13.50;;
10248;SDS011;5169;50.560;9.714;2022-12-15T17:31:42;23.83;;;14.50;;
10248;SDS011;5169;50.560;9.714;2022-12-15T17:37:00;24.37;;;13.37;;
10248;SDS011;5169;50.560;9.714;2022-12-15T17:39:28;24.00;;;13.87;;
10248;SDS011;5169;50.560;9.714;2022-12-15T17:41:54;20.93;;;12.93;;
10248;SDS011;5169;50.560;9.714;2022-12-15T17:44:35;20.43;;;12.53;;